Time;durP1;ratioP1;P1;durP2;ratioP2;P2;SDS_P1;SDS_P2;PMS_P1;PMS_P2;Temp;Humidity;BMP_temperature;BMP_pressure;BME280_temperature;BME280_humidity;BME280_pressure;Samples;Min_cycle;Max_cycle;Signal;HPM_P1;HPM_P2
2023/06/07 00:00:41;;;;;;;16.77;5.65;;;;;;;-143.48;81.89;118439.88;5015212;28;20132;-77
2023/06/07 00:03:09;;;;;;;16.35;5.90;;;;;;;-143.48;81.89;118439.88;5015586;28;20022;-76
2023/06/07 00:05:37;;;;;;;15.45;5.30;;;;;;;-143.48;81.56;118439.88;5015882;28;20021;-76
2023/06/07 00:08:02;;;;;;;21.45;5.78;;;;;;;-143.48;81.76;118439.88;5015300;28;20118;-76
2023/06/07 00:10:28;;;;;;;14.98;5.65;;;;;;;-143.48;81.71;118439.88;5015247;28;20052;-76
2023/06/07 00:12:54;;;;;;;16.95;5.47;;;;;;;-143.48;82.14;118439.88;5015813;28;20483;-76
2023/06/07 00:15:19;;;;;;;19.90;5.40;;;;;;;-143.48;80.81;118439.88;5015829;28;20388;-76
2023/06/07 00:17:45;;;;;;;11.65;5.13;;;;;;;-143.48;80.87;118439.88;5033545;28;20418;-76
2023/06/07 00:20:12;;;;;;;16.17;5.43;;;;;;;-143.48;82.07;118439.88;5033348;28;20078;-76
2023/06/07 00:22:38;;;;;;;14.85;5.35;;;;;;;-143.48;81.19;118439.88;5015616;28;20380;-77
2023/06/07 00:25:06;;;;;;;15.82;5.28;;;;;;;-143.48;82.15;118439.88;5015302;28;20387;-77
2023/06/07 00:27:32;;;;;;;12.15;5.18;;;;;;;-143.48;81.39;118439.88;5033329;28;20040;-77
2023/06/07 00:29:58;;;;;;;17.65;4.93;;;;;;;-143.48;80.47;118439.88;5015632;28;20022;-77
2023/06/07 00:32:23;;;;;;;12.57;4.90;;;;;;;-143.48;82.57;118439.88;5014931;28;20072;-77
2023/06/07 00:34:49;;;;;;;16.40;5.60;;;;;;;-143.48;82.51;118439.88;5015222;28;20026;-76
2023/06/07 00:37:14;;;;;;;15.88;5.22;;;;;;;-143.48;82.36;118439.88;5033272;28;20079;-77
2023/06/07 00:39:40;;;;;;;14.10;4.95;;;;;;;-143.48;82.24;118439.88;5019439;28;20040;-77
2023/06/07 00:42:06;;;;;;;14.98;5.13;;;;;;;-143.48;82.70;118439.88;5018679;28;20024;-77
2023/06/07 00:44:31;;;;;;;15.55;5.28;;;;;;;-143.48;83.54;118439.88;5018574;28;20025;-76
2023/06/07 00:46:57;;;;;;;11.48;4.82;;;;;;;-143.48;84.92;118439.88;5037110;28;20044;-76
2023/06/07 00:49:23;;;;;;;12.65;4.95;;;;;;;-143.48;82.50;118439.88;5018807;28;20113;-77
2023/06/07 00:51:49;;;;;;;12.57;4.88;;;;;;;-143.48;84.45;118439.88;5036231;28;20033;-77
2023/06/07 00:54:17;;;;;;;15.35;4.95;;;;;;;-143.48;84.02;118439.88;5018866;28;20112;-76
2023/06/07 00:56:50;;;;;;;13.75;4.95;;;;;;;-143.48;82.53;118439.88;5018600;28;20032;-76
2023/06/07 00:59:19;;;;;;;18.73;4.88;;;;;;;-143.48;82.57;118439.88;5018380;28;20029;-76
2023/06/07 01:01:47;;;;;;;11.30;4.47;;;;;;;-143.48;81.57;118439.88;5018404;28;20075;-77
2023/06/07 01:04:13;;;;;;;14.25;4.93;;;;;;;-143.48;82.02;118439.88;5018357;28;20044;-77
2023/06/07 01:06:39;;;;;;;15.98;4.93;;;;;;;-143.48;82.67;118439.88;5001912;28;20029;-77
2023/06/07 01:09:06;;;;;;;15.95;5.10;;;;;;;-143.48;82.78;118439.88;5018665;28;20053;-77
2023/06/07 01:11:34;;;;;;;14.07;4.57;;;;;;;-143.48;82.55;118439.88;5036446;28;20025;-77
2023/06/07 01:14:00;;;;;;;14.15;4.57;;;;;;;-143.48;85.00;118439.88;5018522;28;20064;-77
2023/06/07 01:16:26;;;;;;;13.45;4.55;;;;;;;-143.48;84.47;118439.88;5018626;28;20419;-77
2023/06/07 01:18:51;;;;;;;22.25;5.03;;;;;;;-143.48;84.07;118439.88;5002002;28;20033;-76
2023/06/07 01:21:19;;;;;;;14.93;5.25;;;;;;;-143.48;83.41;118439.88;5018774;28;20109;-76
2023/06/07 01:23:44;;;;;;;13.60;4.97;;;;;;;-143.48;83.40;118439.88;5036277;28;20037;-76
2023/06/07 01:26:11;;;;;;;14.45;4.63;;;;;;;-143.48;83.41;118439.88;5018408;28;20037;-77
2023/06/07 01:28:41;;;;;;;14.57;5.20;;;;;;;-143.48;83.76;118439.88;5018113;28;20021;-76
2023/06/07 01:31:08;;;;;;;12.65;4.72;;;;;;;-143.48;82.99;118439.88;5017839;28;20025;-77
2023/06/07 01:33:35;;;;;;;15.27;5.60;;;;;;;-143.48;84.21;118439.88;5035942;28;20029;-76
2023/06/07 01:36:03;;;;;;;13.95;4.80;;;;;;;-143.48;83.95;118439.88;5018091;28;20055;-77
2023/06/07 01:38:31;;;;;;;12.27;4.82;;;;;;;-143.48;83.66;118439.88;5017777;28;20108;-77
2023/06/07 01:40:58;;;;;;;15.93;5.00;;;;;;;-143.48;84.44;118439.88;5018252;28;20025;-76
2023/06/07 01:43:25;;;;;;;11.20;4.57;;;;;;;-143.48;84.63;118439.88;5018393;28;20029;-77
2023/06/07 01:45:51;;;;;;;15.15;5.00;;;;;;;-143.48;83.76;118439.88;5017786;28;20424;-77
2023/06/07 01:48:18;;;;;;;11.50;4.47;;;;;;;-143.48;85.25;118439.88;5017444;28;20025;-76
2023/06/07 01:50:43;;;;;;;12.48;5.05;;;;;;;-143.48;86.75;118439.88;5035784;28;20108;-76
2023/06/07 01:53:09;;;;;;;17.70;5.18;;;;;;;-143.48;85.37;118439.88;5018086;28;20053;-76
2023/06/07 01:55:34;;;;;;;14.43;5.00;;;;;;;-143.48;86.09;118439.88;5017540;28;20036;-76
2023/06/07 01:58:24;;;;;;;11.65;5.22;;;;;;;-143.48;86.47;118439.88;5017183;28;20022;-76
2023/06/07 02:01:10;;;;;;;13.77;5.13;;;;;;;-143.48;86.40;118439.88;5017512;28;20096;-76
2023/06/07 02:03:43;;;;;;;15.65;5.15;;;;;;;-143.48;85.84;118439.88;5017489;28;20029;-76
2023/06/07 02:06:11;;;;;;;19.60;5.20;;;;;;;-143.48;85.33;118439.88;5017740;28;20025;-76
2023/06/07 02:08:47;;;;;;;13.68;4.78;;;;;;;-143.48;85.77;118439.88;5017086;28;20029;-76
2023/06/07 02:11:15;;;;;;;16.27;4.85;;;;;;;-143.48;86.32;118439.88;5001515;28;20037;-76
2023/06/07 02:13:42;;;;;;;14.32;5.10;;;;;;;-143.48;87.22;118439.88;5017386;28;20017;-76
2023/06/07 02:16:07;;;;;;;14.32;4.85;;;;;;;-143.48;87.44;118439.88;5017444;28;20047;-75
2023/06/07 02:18:40;;;;;;;18.17;6.13;;;;;;;-143.48;86.98;118439.88;5017482;28;20105;-76
2023/06/07 02:21:05;;;;;;;12.70;4.80;;;;;;;-143.48;86.83;118439.88;5017287;28;20376;-76
2023/06/07 02:23:31;;;;;;;13.20;5.30;;;;;;;-143.48;86.18;118439.88;5017623;28;20040;-76
2023/06/07 02:25:56;;;;;;;15.18;5.00;;;;;;;-143.48;86.19;118439.88;5017574;28;20021;-76
2023/06/07 02:28:21;;;;;;;14.65;4.97;;;;;;;-143.48;86.92;118439.88;5017446;28;20029;-76
2023/06/07 02:30:46;;;;;;;17.42;5.18;;;;;;;-143.48;86.99;118439.88;5016765;28;20033;-76
2023/06/07 02:33:13;;;;;;;13.10;4.60;;;;;;;-143.48;87.31;118439.88;5017520;28;20089;-76
2023/06/07 02:35:40;;;;;;;9.82;5.00;;;;;;;-143.48;88.17;118439.88;5034705;28;20529;-75
2023/06/07 02:38:06;;;;;;;11.88;5.20;;;;;;;-143.48;88.85;118439.88;5017195;28;20404;-76
2023/06/07 02:40:32;;;;;;;15.85;5.10;;;;;;;-143.48;88.84;118439.88;5017142;28;20364;-76
2023/06/07 02:42:58;;;;;;;17.08;5.22;;;;;;;-143.48;89.08;118439.88;5017778;28;20029;-76
2023/06/07 02:45:23;;;;;;;17.17;5.85;;;;;;;-143.48;89.63;118439.88;5016957;28;20128;-77
2023/06/07 02:47:48;;;;;;;9.60;4.70;;;;;;;-143.48;89.44;118439.88;5016782;28;20024;-77
2023/06/07 02:50:13;;;;;;;13.73;5.18;;;;;;;-143.48;88.84;118439.88;5016781;28;20021;-77
2023/06/07 02:52:39;;;;;;;14.43;5.28;;;;;;;-143.48;88.35;118439.88;5016547;28;20025;-77
2023/06/07 02:55:05;;;;;;;18.60;5.20;;;;;;;-143.48;89.14;118439.88;5017160;28;20028;-77
2023/06/07 02:57:30;;;;;;;16.20;5.03;;;;;;;-143.48;88.80;118439.88;5034855;28;20103;-77
2023/06/07 02:59:56;;;;;;;16.10;4.82;;;;;;;-143.48;88.38;118439.88;5016509;28;20392;-77
2023/06/07 03:02:22;;;;;;;15.90;4.75;;;;;;;-143.48;89.03;118439.88;5015271;28;20512;-77
2023/06/07 03:04:48;;;;;;;15.32;4.90;;;;;;;-143.48;89.10;118439.88;5014831;28;20029;-76
2023/06/07 03:07:13;;;;;;;9.88;4.68;;;;;;;-143.48;88.27;118439.88;5014853;28;20061;-76
2023/06/07 03:09:39;;;;;;;14.98;4.60;;;;;;;-143.48;88.30;118439.88;5014924;28;20026;-76
2023/06/07 03:12:06;;;;;;;11.73;4.95;;;;;;;-143.48;87.83;118439.88;5013925;28;20024;-76
2023/06/07 03:14:32;;;;;;;13.57;4.47;;;;;;;-143.48;88.33;118439.88;5015024;28;20148;-76
2023/06/07 03:16:57;;;;;;;13.80;4.68;;;;;;;-143.48;88.71;118439.88;5013880;28;20038;-76
2023/06/07 03:19:22;;;;;;;14.25;4.97;;;;;;;-143.48;88.49;118439.88;5013257;28;20413;-76
2023/06/07 03:21:48;;;;;;;21.58;4.97;;;;;;;-143.48;87.60;118439.88;5013166;28;20081;-76
2023/06/07 03:24:14;;;;;;;15.27;4.45;;;;;;;-143.48;88.64;118439.88;5012858;28;20026;-77
2023/06/07 03:26:40;;;;;;;18.67;4.53;;;;;;;-143.48;88.86;118439.88;5014420;28;20026;-76
2023/06/07 03:29:06;;;;;;;11.23;4.50;;;;;;;-143.48;88.87;118439.88;5012769;28;20053;-76
2023/06/07 03:31:31;;;;;;;11.25;4.65;;;;;;;-143.48;88.87;118439.88;5013319;28;20528;-77
2023/06/07 03:33:57;;;;;;;12.68;4.40;;;;;;;-143.48;88.23;118439.88;5014300;28;20153;-77
2023/06/07 03:36:25;;;;;;;17.52;4.65;;;;;;;-143.48;88.37;118439.88;5013255;28;20104;-76
2023/06/07 03:38:52;;;;;;;14.55;4.72;;;;;;;-143.48;89.44;118439.88;5013118;28;20033;-76
2023/06/07 03:41:18;;;;;;;13.60;5.13;;;;;;;-143.48;89.25;118439.88;5013729;28;20028;-76
2023/06/07 03:43:43;;;;;;;12.40;4.30;;;;;;;-143.48;89.25;118439.88;5012672;28;20407;-76
2023/06/07 03:46:08;;;;;;;19.05;4.53;;;;;;;-143.48;89.00;118439.88;5012678;28;20026;-76
2023/06/07 03:48:34;;;;;;;11.52;4.03;;;;;;;-143.48;88.81;118439.88;5012578;28;20116;-77
2023/06/07 03:51:00;;;;;;;14.07;4.70;;;;;;;-143.48;89.26;118439.88;5012529;28;20069;-77
2023/06/07 03:53:25;;;;;;;18.17;5.35;;;;;;;-143.48;88.38;118439.88;5013730;28;20025;-77
2023/06/07 03:55:51;;;;;;;12.80;4.15;;;;;;;-143.48;88.80;118439.88;5012734;28;20072;-77
2023/06/07 03:58:19;;;;;;;12.82;4.22;;;;;;;-143.48;90.04;118439.88;5012239;28;20018;-77
2023/06/07 04:00:47;;;;;;;10.07;4.03;;;;;;;-143.48;88.16;118439.88;5012561;28;20132;-77
2023/06/07 04:03:12;;;;;;;13.82;4.68;;;;;;;-143.48;87.86;118439.88;5012354;28;20045;-77
2023/06/07 04:05:38;;;;;;;14.13;4.50;;;;;;;-143.48;87.57;118439.88;5012606;28;20545;-77
2023/06/07 04:08:05;;;;;;;12.60;4.07;;;;;;;-143.48;88.89;118439.88;5014401;28;20022;-76
2023/06/07 04:10:30;;;;;;;17.00;4.63;;;;;;;-143.48;87.34;118439.88;5013796;28;20108;-77
2023/06/07 04:12:56;;;;;;;17.52;4.55;;;;;;;-143.48;88.01;118439.88;5016054;28;20104;-76
2023/06/07 04:15:21;;;;;;;18.33;4.85;;;;;;;-143.48;87.32;118439.88;5016505;28;20108;-77
2023/06/07 04:17:50;;;;;;;14.65;4.55;;;;;;;-143.48;88.05;118439.88;5018233;28;20088;-77
2023/06/07 04:20:16;;;;;;;20.60;5.20;;;;;;;-143.48;86.60;118439.88;5016450;28;20397;-77
2023/06/07 04:22:42;;;;;;;12.35;4.90;;;;;;;-143.48;86.01;118439.88;5018052;28;20037;-77
2023/06/07 04:25:08;;;;;;;19.92;4.90;;;;;;;-143.48;86.64;118439.88;5020493;28;20022;-76
2023/06/07 04:27:34;;;;;;;14.68;4.55;;;;;;;-143.48;86.86;118439.88;5018652;28;20512;-76
2023/06/07 04:30:02;;;;;;;16.63;4.63;;;;;;;-143.48;87.52;118439.88;5017781;28;20026;-76
2023/06/07 04:32:28;;;;;;;19.73;4.90;;;;;;;-143.48;87.47;118439.88;5018541;28;20536;-76
2023/06/07 04:34:55;;;;;;;19.00;5.10;;;;;;;-143.48;86.47;118439.88;5019456;28;20029;-77
2023/06/07 04:37:20;;;;;;;13.35;4.75;;;;;;;-143.48;86.40;118439.88;5019680;28;20366;-78
2023/06/07 04:39:49;;;;;;;16.45;4.78;;;;;;;-143.48;86.02;118439.88;5016654;28;20030;-77
2023/06/07 04:42:16;;;;;;;14.95;5.47;;;;;;;-143.48;85.87;118439.88;5017096;28;20370;-77
2023/06/07 04:44:42;;;;;;;16.73;4.97;;;;;;;-143.48;85.38;118439.88;5016040;28;20030;-76
2023/06/07 04:47:09;;;;;;;21.13;5.15;;;;;;;-143.48;85.20;118439.88;5015753;28;20037;-76
2023/06/07 04:49:35;;;;;;;19.27;5.22;;;;;;;-143.48;84.65;118439.88;5016084;28;20026;-77
2023/06/07 04:52:01;;;;;;;21.77;5.10;;;;;;;-143.48;84.25;118439.88;5015926;28;20037;-77
2023/06/07 04:54:28;;;;;;;17.63;4.93;;;;;;;-143.48;83.40;118439.88;5015929;28;20458;-77
2023/06/07 04:56:56;;;;;;;18.60;4.95;;;;;;;-143.48;84.24;118439.88;5015291;28;20546;-76
2023/06/07 04:59:23;;;;;;;16.75;4.60;;;;;;;-143.48;84.16;118439.88;5015605;28;20256;-76
2023/06/07 05:01:48;;;;;;;17.23;5.10;;;;;;;-143.48;82.81;118439.88;5028461;28;20123;-76
2023/06/07 05:04:16;;;;;;;17.70;5.47;;;;;;;-143.48;83.74;118439.88;5018924;28;20053;-76
2023/06/07 05:06:41;;;;;;;17.60;5.63;;;;;;;-143.48;83.20;118439.88;5018719;28;20029;-76
2023/06/07 05:09:07;;;;;;;18.45;4.85;;;;;;;-143.48;82.32;118439.88;5018904;28;20021;-76
2023/06/07 05:11:32;;;;;;;21.83;5.40;;;;;;;-143.48;82.78;118439.88;5018236;28;20033;-76
2023/06/07 05:13:58;;;;;;;20.08;5.05;;;;;;;-143.48;82.71;118439.88;5018786;28;20029;-76
2023/06/07 05:16:24;;;;;;;19.98;4.70;;;;;;;-143.48;82.36;118439.88;5018697;28;20017;-76
2023/06/07 05:18:50;;;;;;;15.30;4.57;;;;;;;-143.48;81.20;118439.88;5018327;28;20021;-76
2023/06/07 05:21:16;;;;;;;20.85;4.60;;;;;;;-143.48;81.78;118439.88;5018587;28;20021;-76
2023/06/07 05:23:42;;;;;;;15.35;4.70;;;;;;;-143.48;81.67;118439.88;5018028;28;20029;-76
2023/06/07 05:26:08;;;;;;;15.90;4.70;;;;;;;-143.48;81.12;118439.88;5019520;28;20040;-76
2023/06/07 05:28:34;;;;;;;15.60;4.72;;;;;;;-143.48;82.02;118439.88;5018843;28;20025;-76
2023/06/07 05:31:00;;;;;;;16.83;4.35;;;;;;;-143.48;82.04;118439.88;5018813;28;20056;-76
2023/06/07 05:33:28;;;;;;;17.98;4.93;;;;;;;-143.48;82.02;118439.88;5036240;28;20097;-76
2023/06/07 05:35:54;;;;;;;22.08;4.38;;;;;;;-143.48;81.08;118439.88;5019426;28;20048;-76
2023/06/07 05:38:20;;;;;;;16.33;5.18;;;;;;;-143.48;81.99;118439.88;5018773;28;20140;-76
2023/06/07 05:40:45;;;;;;;17.45;4.32;;;;;;;-143.48;81.68;118439.88;5018587;28;20031;-76
2023/06/07 05:43:10;;;;;;;15.90;4.47;;;;;;;-143.48;81.91;118439.88;5036525;28;20036;-77
2023/06/07 05:45:36;;;;;;;15.15;4.60;;;;;;;-143.48;81.50;118439.88;5018420;28;20026;-77
2023/06/07 05:48:01;;;;;;;12.90;4.60;;;;;;;-143.48;82.25;118439.88;5036376;28;20025;-77
2023/06/07 05:50:26;;;;;;;16.33;5.03;;;;;;;-143.48;82.64;118439.88;5018109;28;20032;-77
2023/06/07 05:52:59;;;;;;;13.27;4.78;;;;;;;-143.48;82.66;118439.88;5018827;28;20021;-77
2023/06/07 05:55:25;;;;;;;12.50;4.67;;;;;;;-143.48;83.08;118439.88;5036048;28;20033;-77
2023/06/07 05:57:51;;;;;;;11.95;4.45;;;;;;;-143.48;82.32;118439.88;5019316;28;20465;-77
2023/06/07 06:00:17;;;;;;;14.35;4.50;;;;;;;-143.48;82.71;118439.88;5018451;28;20030;-77
2023/06/07 06:02:45;;;;;;;17.33;4.85;;;;;;;-143.48;82.00;118439.88;5015216;28;20050;-78
2023/06/07 06:05:11;;;;;;;15.00;5.13;;;;;;;-143.48;82.13;118439.88;5014278;28;20080;-77
2023/06/07 06:07:36;;;;;;;15.88;5.18;;;;;;;-143.48;82.79;118439.88;5015673;28;20026;-77
2023/06/07 06:10:04;;;;;;;15.15;5.25;;;;;;;-143.48;84.32;118439.88;5015442;28;20389;-77
2023/06/07 06:12:30;;;;;;;20.02;4.88;;;;;;;-143.48;83.75;118439.88;5013973;28;20033;-77
2023/06/07 06:14:55;;;;;;;12.30;4.55;;;;;;;-143.48;82.35;118439.88;5016470;28;20301;-77
2023/06/07 06:17:21;;;;;;;18.17;4.97;;;;;;;-143.48;80.65;118439.88;5017424;28;20053;-76
2023/06/07 06:19:47;;;;;;;17.35;4.97;;;;;;;-143.48;80.22;118439.88;5014563;28;20022;-76
2023/06/07 06:22:12;;;;;;;15.65;5.28;;;;;;;-143.48;79.41;118439.88;5014710;28;20045;-77
2023/06/07 06:24:38;;;;;;;11.15;5.18;;;;;;;-143.48;81.60;118439.88;5015544;28;20021;-77
2023/06/07 06:27:03;;;;;;;16.45;4.93;;;;;;;-143.48;78.68;118439.88;5014416;28;20049;-77
2023/06/07 06:29:28;;;;;;;16.25;5.50;;;;;;;-143.48;78.32;118439.88;5014541;28;20022;-77
2023/06/07 06:31:54;;;;;;;14.07;4.78;;;;;;;-143.48;76.53;118439.88;5014060;28;20025;-76
2023/06/07 06:34:19;;;;;;;15.85;5.50;;;;;;;-143.48;76.06;118439.88;5015144;28;20037;-77
2023/06/07 06:36:45;;;;;;;18.92;5.13;;;;;;;-143.48;73.70;118439.88;5013706;28;20033;-77
2023/06/07 06:39:11;;;;;;;17.98;4.82;;;;;;;-143.48;71.45;118439.88;5013405;28;20030;-77
2023/06/07 06:41:36;;;;;;;16.20;4.90;;;;;;;-143.48;72.03;118439.88;5013379;28;20018;-76
2023/06/07 06:44:01;;;;;;;17.95;5.10;;;;;;;-143.48;72.04;118439.88;5013670;28;20025;-76
2023/06/07 06:46:28;;;;;;;15.75;4.68;;;;;;;-143.48;67.34;118439.88;5013854;28;20026;-77
2023/06/07 06:48:53;;;;;;;14.90;4.63;;;;;;;-143.48;68.25;118439.88;5014527;28;20062;-76
2023/06/07 06:51:19;;;;;;;13.75;4.68;;;;;;;-143.48;64.09;118439.88;5013555;28;20057;-76
2023/06/07 06:53:44;;;;;;;15.63;4.55;;;;;;;-143.48;60.66;118439.88;5013463;28;20101;-77
2023/06/07 06:56:09;;;;;;;17.30;4.53;;;;;;;-143.48;65.06;118439.88;5013403;28;20041;-76
2023/06/07 06:58:35;;;;;;;18.52;5.22;;;;;;;-143.48;63.02;118439.88;5013468;28;20041;-76
2023/06/07 07:01:02;;;;;;;13.10;4.13;;;;;;;-143.48;61.93;118439.88;5019744;28;20414;-77
2023/06/07 07:03:28;;;;;;;12.80;4.10;;;;;;;-143.48;60.00;118439.88;5034451;28;20025;-77
2023/06/07 07:05:53;;;;;;;16.42;4.35;;;;;;;-143.48;57.19;118439.88;5016769;28;20029;-77
2023/06/07 07:08:19;;;;;;;15.95;4.47;;;;;;;-143.48;57.80;118439.88;5034083;28;20389;-76
2023/06/07 07:10:46;;;;;;;9.80;3.97;;;;;;;-143.48;55.63;118439.88;5016267;28;20057;-76
2023/06/07 07:13:11;;;;;;;15.25;3.80;;;;;;;-143.48;56.92;118439.88;5016704;28;20563;-77
2023/06/07 07:15:37;;;;;;;15.30;4.07;;;;;;;-143.48;54.97;118439.88;5016431;28;20025;-76
2023/06/07 07:18:02;;;;;;;12.75;4.15;;;;;;;-143.48;56.93;118439.88;5016609;28;20037;-76
2023/06/07 07:20:28;;;;;;;13.23;4.00;;;;;;;-143.48;55.77;118439.88;5016448;28;20017;-76
2023/06/07 07:22:55;;;;;;;11.23;4.15;;;;;;;-143.48;53.37;118439.88;5016374;28;20369;-78
2023/06/07 07:25:20;;;;;;;13.38;4.20;;;;;;;-143.48;54.32;118439.88;5016448;28;20025;-77
2023/06/07 07:27:46;;;;;;;13.50;4.00;;;;;;;-143.48;52.22;118439.88;5016881;28;20028;-77
2023/06/07 07:30:11;;;;;;;9.50;3.80;;;;;;;-143.48;52.93;118439.88;5034123;28;20017;-77
2023/06/07 07:32:37;;;;;;;13.15;4.20;;;;;;;-143.48;53.62;118439.88;5016468;28;20497;-77
2023/06/07 07:35:02;;;;;;;10.60;4.13;;;;;;;-143.48;53.74;118439.88;5016639;28;20059;-77
2023/06/07 07:37:28;;;;;;;11.35;4.22;;;;;;;-143.48;53.66;118439.88;5034347;28;20033;-77
2023/06/07 07:39:54;;;;;;;17.00;4.03;;;;;;;-143.48;55.04;118439.88;5016209;28;20017;-77
2023/06/07 07:42:19;;;;;;;13.52;3.55;;;;;;;-143.48;54.14;118439.88;5016399;28;20017;-77
2023/06/07 07:44:45;;;;;;;10.18;4.15;;;;;;;-143.48;52.57;118439.88;5016138;28;20113;-77
2023/06/07 07:47:11;;;;;;;12.80;3.58;;;;;;;-143.48;52.62;118439.88;5015749;28;20029;-77
2023/06/07 07:49:37;;;;;;;11.43;3.50;;;;;;;-143.48;51.82;118439.88;5016039;28;20432;-77
2023/06/07 07:52:02;;;;;;;12.88;3.83;;;;;;;-143.48;51.46;118439.88;5033823;28;20033;-77
2023/06/07 07:54:29;;;;;;;14.50;3.95;;;;;;;-143.48;50.94;118439.88;5015847;28;20128;-77
2023/06/07 07:56:55;;;;;;;17.17;4.03;;;;;;;-143.48;52.63;118439.88;5034174;28;20040;-77
2023/06/07 07:59:21;;;;;;;11.65;3.60;;;;;;;-143.48;49.85;118439.88;5017074;28;20071;-77
2023/06/07 08:01:47;;;;;;;14.88;3.95;;;;;;;-143.48;50.40;118439.88;5015991;28;20038;-77
2023/06/07 08:04:13;;;;;;;11.68;4.13;;;;;;;-143.48;50.50;118439.88;5033813;28;20361;-77
2023/06/07 08:06:38;;;;;;;10.23;3.85;;;;;;;-143.48;50.16;118439.88;5015261;28;20029;-78
2023/06/07 08:09:05;;;;;;;12.75;3.72;;;;;;;-143.48;51.83;118439.88;5015475;28;20025;-77
2023/06/07 08:11:31;;;;;;;16.95;4.07;;;;;;;-143.48;49.26;118439.88;5015204;28;20045;-78
2023/06/07 08:13:56;;;;;;;10.90;3.70;;;;;;;-143.48;46.75;118439.88;5033335;28;20443;-77
2023/06/07 08:16:21;;;;;;;9.70;3.55;;;;;;;-143.48;48.49;118439.88;5015812;28;20104;-78
2023/06/07 08:18:49;;;;;;;9.55;3.72;;;;;;;-143.48;46.19;118439.88;5016398;28;20143;-78
2023/06/07 08:21:15;;;;;;;11.63;4.10;;;;;;;-143.48;48.87;118439.88;5017163;28;20151;-78
2023/06/07 08:23:43;;;;;;;12.85;4.10;;;;;;;-143.48;50.81;118439.88;5016340;28;20037;-78
2023/06/07 08:26:08;;;;;;;11.02;3.63;;;;;;;-143.48;48.19;118439.88;5016867;28;20136;-78
2023/06/07 08:28:34;;;;;;;14.43;4.18;;;;;;;-143.48;48.57;118439.88;4999622;28;20048;-78
2023/06/07 08:31:03;;;;;;;14.43;3.90;;;;;;;-143.48;50.91;118439.88;5015424;28;20053;-77
2023/06/07 08:33:29;;;;;;;15.55;4.50;;;;;;;-143.48;47.87;118439.88;5000625;28;20053;-78
2023/06/07 08:35:54;;;;;;;15.20;4.07;;;;;;;-143.48;48.97;118439.88;5016076;28;20520;-77
2023/06/07 08:38:19;;;;;;;11.07;3.85;;;;;;;-143.48;47.19;118439.88;5016409;28;20063;-76
2023/06/07 08:40:45;;;;;;;15.65;3.80;;;;;;;-143.48;47.41;118439.88;5015494;28;20090;-77
2023/06/07 08:43:11;;;;;;;9.90;3.70;;;;;;;-143.48;48.03;118439.88;5033434;28;20035;-76
2023/06/07 08:45:37;;;;;;;15.77;3.88;;;;;;;-143.48;45.15;118439.88;5016298;28;20029;-76
2023/06/07 08:48:09;;;;;;;9.43;3.50;;;;;;;-143.48;44.79;118439.88;5015968;28;20458;-76
2023/06/07 08:50:35;;;;;;;14.00;3.53;;;;;;;-143.48;45.21;118439.88;5015528;28;20025;-76
2023/06/07 08:53:06;;;;;;;11.13;3.50;;;;;;;-143.48;44.75;118439.88;5015331;28;20017;-77
2023/06/07 08:55:33;;;;;;;14.02;3.92;;;;;;;-143.48;47.77;118439.88;5015369;28;20045;-76
2023/06/07 08:57:59;;;;;;;12.23;3.80;;;;;;;-143.48;46.27;118439.88;5033012;28;20028;-76
2023/06/07 09:00:25;;;;;;;13.00;3.92;;;;;;;-143.48;44.71;118439.88;5018826;28;20025;-76
2023/06/07 09:02:52;;;;;;;12.00;3.40;;;;;;;-143.48;45.04;118439.88;5019232;28;20028;-76
2023/06/07 09:05:22;;;;;;;13.60;3.75;;;;;;;-143.48;47.00;118439.88;5020968;28;20140;-76
2023/06/07 09:07:50;;;;;;;15.77;4.38;;;;;;;-143.48;44.75;118439.88;5036435;28;20033;-76
2023/06/07 09:10:19;;;;;;;11.35;3.50;;;;;;;-143.48;44.41;118439.88;5019114;28;20384;-76
2023/06/07 09:12:48;;;;;;;10.05;3.28;;;;;;;-143.48;46.28;118439.88;5022600;28;20021;-76
2023/06/07 09:15:19;;;;;;;8.88;3.50;;;;;;;-143.48;45.67;118439.88;5020051;28;20029;-76
2023/06/07 09:18:01;;;;;;;10.73;3.80;;;;;;;-143.48;45.10;118439.88;5036469;28;20024;-76
2023/06/07 09:20:29;;;;;;;12.55;3.83;;;;;;;-143.48;43.71;118439.88;5018865;28;20449;-77
2023/06/07 09:23:08;;;;;;;12.50;3.72;;;;;;;-143.48;46.17;118439.88;5018621;28;20381;-77
2023/06/07 09:25:37;;;;;;;12.00;3.45;;;;;;;-143.48;44.52;118439.88;5018670;28;20036;-76
2023/06/07 09:28:03;;;;;;;12.50;3.60;;;;;;;-143.48;44.37;118439.88;5018610;28;20033;-77
2023/06/07 09:30:28;;;;;;;12.82;3.58;;;;;;;-143.48;45.64;118439.88;5018288;28;20037;-76
2023/06/07 09:32:54;;;;;;;10.63;3.72;;;;;;;-143.48;43.90;118439.88;5035966;28;20053;-76
2023/06/07 09:35:19;;;;;;;12.88;3.78;;;;;;;-143.48;43.68;118439.88;5018534;28;20071;-77
2023/06/07 09:37:54;;;;;;;14.60;4.03;;;;;;;-143.48;45.34;118439.88;5018649;28;20022;-76
2023/06/07 09:40:22;;;;;;;12.77;3.40;;;;;;;-143.48;43.04;118439.88;5036105;28;20037;-78
2023/06/07 09:42:58;;;;;;;11.15;3.90;;;;;;;-143.48;44.18;118439.88;5018077;28;20025;-77
2023/06/07 09:45:25;;;;;;;14.30;3.67;;;;;;;-143.48;43.50;118439.88;5017898;28;20033;-76
2023/06/07 09:48:04;;;;;;;14.07;4.00;;;;;;;-143.48;43.79;118439.88;5035491;28;20101;-75
2023/06/07 09:50:30;;;;;;;12.43;3.20;;;;;;;-143.48;41.81;118439.88;5002125;28;20029;-76
2023/06/07 09:52:56;;;;;;;12.57;3.40;;;;;;;-143.48;40.79;118439.88;5019780;28;20120;-77
2023/06/07 09:55:27;;;;;;;11.85;3.20;;;;;;;-143.48;41.14;118439.88;5018805;28;20029;-77
2023/06/07 09:57:52;;;;;;;9.93;3.40;;;;;;;-143.48;42.18;118439.88;5035908;28;20029;-76
2023/06/07 10:00:19;;;;;;;11.13;3.40;;;;;;;-143.48;42.09;118439.88;5018556;28;20087;-76
2023/06/07 10:02:46;;;;;;;13.65;3.70;;;;;;;-143.48;44.21;118439.88;5017612;28;20049;-77
2023/06/07 10:05:13;;;;;;;11.73;3.53;;;;;;;-143.48;42.20;118439.88;5037030;28;20022;-76
2023/06/07 10:07:43;;;;;;;16.83;3.65;;;;;;;-143.48;41.96;118439.88;5019231;28;20076;-76
2023/06/07 10:10:11;;;;;;;12.85;4.00;;;;;;;-143.48;43.68;118439.88;5038394;28;20025;-77
2023/06/07 10:12:40;;;;;;;11.65;3.38;;;;;;;-143.48;44.21;118439.88;5018680;28;20066;-77
2023/06/07 10:15:08;;;;;;;11.45;3.60;;;;;;;-143.48;43.49;118439.88;5001600;28;20056;-77
2023/06/07 10:17:45;;;;;;;14.63;3.75;;;;;;;-143.48;42.08;118439.88;5035513;28;20024;-76
2023/06/07 10:20:15;;;;;;;13.25;3.90;;;;;;;-143.48;40.61;118439.88;5018418;28;20025;-76
2023/06/07 10:22:43;;;;;;;10.55;3.42;;;;;;;-143.48;41.62;118439.88;5035273;28;20021;-76
2023/06/07 10:25:12;;;;;;;13.10;3.42;;;;;;;-143.48;40.53;118439.88;5017115;28;20026;-76
2023/06/07 10:28:00;;;;;;;14.75;3.60;;;;;;;-143.48;40.54;118439.88;5034913;28;20055;-76
2023/06/07 10:30:28;;;;;;;10.80;3.47;;;;;;;-143.48;44.00;118439.88;5019755;28;20037;-75
2023/06/07 10:32:54;;;;;;;11.48;3.30;;;;;;;-143.48;43.80;118439.88;5036836;28;20036;-75
2023/06/07 10:35:20;;;;;;;12.57;3.80;;;;;;;-143.48;40.64;118439.88;5037161;28;20018;-76
2023/06/07 10:37:53;;;;;;;12.60;3.58;;;;;;;-143.48;45.22;118439.88;5035527;28;20021;-77
2023/06/07 10:40:20;;;;;;;15.10;3.58;;;;;;;-143.48;43.79;118439.88;5017561;28;20033;-77
2023/06/07 10:42:46;;;;;;;12.38;3.55;;;;;;;-143.48;43.25;118439.88;5017484;28;20036;-76
2023/06/07 10:45:15;;;;;;;13.70;3.45;;;;;;;-143.48;42.04;118439.88;5018084;28;20026;-77
2023/06/07 10:47:45;;;;;;;14.90;4.20;;;;;;;-143.48;42.44;118439.88;5017656;28;20065;-77
2023/06/07 10:50:34;;;;;;;13.25;3.50;;;;;;;-143.48;41.36;118439.88;5036248;28;20034;-77
2023/06/07 10:53:01;;;;;;;12.57;3.90;;;;;;;-143.48;43.54;118439.88;5016982;28;20121;-78
2023/06/07 10:55:31;;;;;;;9.70;3.42;;;;;;;-143.48;42.69;118439.88;5017727;28;20017;-78
2023/06/07 10:57:57;;;;;;;13.13;3.50;;;;;;;-143.48;43.31;118439.88;5018384;28;20033;-77
2023/06/07 11:00:33;;;;;;;9.95;3.60;;;;;;;-143.48;41.78;118439.88;5036328;28;20075;-77